createdAt,value
2022-11-08T00:02:26.055Z,100951.72
2022-11-08T00:04:53.232Z,100953.78
2022-11-08T00:07:38.749Z,100946.44
2022-11-08T00:10:27.585Z,100949.34
2022-11-08T00:13:13.017Z,100955.69
2022-11-08T00:15:39.946Z,100958.59
2022-11-08T00:18:08.044Z,100952.66
2022-11-08T00:20:35.090Z,100957.41
2022-11-08T00:23:02.143Z,100952.66
2022-11-08T00:25:30.454Z,100951.84
2022-11-08T00:27:57.859Z,100958.34
2022-11-08T00:30:24.819Z,100949.34
2022-11-08T00:32:51.802Z,100952.59
2022-11-08T00:35:18.748Z,100954.41
2022-11-08T00:37:45.703Z,100954.19
2022-11-08T00:40:13.164Z,100949.69
2022-11-08T00:42:41.422Z,100944.47
2022-11-08T00:45:09.161Z,100949.63
2022-11-08T00:47:36.096Z,100948.63
2022-11-08T00:50:03.371Z,100946.56
2022-11-08T00:52:30.378Z,100938.19
2022-11-08T00:54:57.310Z,100940.44
2022-11-08T00:57:35.889Z,100935.44
2022-11-08T01:00:14.544Z,100934.97
2022-11-08T01:02:41.936Z,100936.59
2022-11-08T01:05:09.311Z,100927.31
2022-11-08T01:07:38.219Z,100923.78
2022-11-08T01:10:07.508Z,100927.47
2022-11-08T01:12:34.445Z,100931.63
2022-11-08T01:15:01.509Z,100923.78
2022-11-08T01:17:29.837Z,100921.69
2022-11-08T01:19:56.816Z,100926.34
2022-11-08T01:22:23.765Z,100924.28
2022-11-08T01:24:50.710Z,100928.19
2022-11-08T01:27:17.669Z,100921.69
2022-11-08T01:29:44.606Z,100924.78
2022-11-08T01:32:11.521Z,100922.38
2022-11-08T01:34:39.802Z,100925.91
2022-11-08T01:37:06.726Z,100921.19
2022-11-08T01:39:33.888Z,100928.78
2022-11-08T01:42:00.822Z,100925.50
2022-11-08T01:44:27.856Z,100924.28
2022-11-08T01:46:54.818Z,100928.59
2022-11-08T01:49:52.872Z,100936.53
2022-11-08T01:52:29.699Z,100935.09
2022-11-08T01:55:16.377Z,100926.56
2022-11-08T01:57:51.363Z,100932.13
2022-11-08T02:00:19.771Z,100922.50
2022-11-08T02:02:54.527Z,100931.97
2022-11-08T02:05:26.931Z,100927.22
2022-11-08T02:08:02.091Z,100926.63
2022-11-08T02:10:35.761Z,100925.88
2022-11-08T02:13:05.168Z,100926.31
2022-11-08T02:15:33.382Z,100924.69
2022-11-08T02:18:00.734Z,100919.78
2022-11-08T02:20:29.357Z,100916.97
2022-11-08T02:23:05.290Z,100922.34
2022-11-08T02:25:33.941Z,100914.63
2022-11-08T02:28:00.936Z,100915.50
2022-11-08T02:30:36.798Z,100911.84
2022-11-08T02:33:15.559Z,100905.50
2022-11-08T02:35:46.204Z,100908.75
2022-11-08T02:38:13.165Z,100908.16
2022-11-08T02:40:49.611Z,100915.97
2022-11-08T02:43:16.678Z,100910.66
2022-11-08T02:45:43.987Z,100909.91
2022-11-08T02:48:11.348Z,100901.09
2022-11-08T02:50:38.357Z,100902.94
2022-11-08T02:53:05.719Z,100905.00
2022-11-08T02:55:34.736Z,100909.56
2022-11-08T02:58:04.930Z,100895.72
2022-11-08T03:00:32.569Z,100905.91
2022-11-08T03:02:59.591Z,100902.66
2022-11-08T03:05:28.526Z,100903.06
2022-11-08T03:07:56.704Z,100906.78
2022-11-08T03:10:27.707Z,100909.25
2022-11-08T03:12:58.478Z,100909.69
2022-11-08T03:15:28.116Z,100899.50
2022-11-08T03:17:56.332Z,100899.50
2022-11-08T03:20:28.311Z,100904.81
2022-11-08T03:22:59.620Z,100901.50
2022-11-08T03:25:27.057Z,100898.25
2022-11-08T03:27:54.074Z,100899.72
2022-11-08T03:30:21.914Z,100896.25
2022-11-08T03:32:50.544Z,100888.47
2022-11-08T03:35:17.525Z,100890.97
2022-11-08T03:37:50.591Z,100889.78
2022-11-08T03:40:18.726Z,100891.97
2022-11-08T03:42:46.294Z,100890.38
2022-11-08T03:45:14.958Z,100892.66
2022-11-08T03:47:44.937Z,100888.56
2022-11-08T03:50:15.909Z,100886.13
2022-11-08T03:52:43.814Z,100884.47
2022-11-08T03:55:12.314Z,100888.16
2022-11-08T03:57:41.179Z,100899.25
2022-11-08T04:00:11.639Z,100892.69
2022-11-08T04:02:40.103Z,100898.47
2022-11-08T04:05:09.392Z,100892.09
2022-11-08T04:07:38.195Z,100898.28
2022-11-08T04:10:08.296Z,100882.53
2022-11-08T04:12:57.130Z,100888.69
2022-11-08T04:15:25.606Z,100888.09
2022-11-08T04:18:13.179Z,100881.72
2022-11-08T04:21:00.465Z,100883.19
2022-11-08T04:23:30.626Z,100887.06
2022-11-08T04:25:59.977Z,100879.09
2022-11-08T04:28:30.366Z,100885.44
2022-11-08T04:30:59.978Z,100887.91
2022-11-08T04:33:27.479Z,100882.13
2022-11-08T04:35:54.619Z,100886.06
2022-11-08T04:38:22.107Z,100888.50
2022-11-08T04:40:50.428Z,100880.50
2022-11-08T04:43:17.365Z,100883.97
2022-11-08T04:45:44.377Z,100876.41
2022-11-08T04:48:11.551Z,100876.59
2022-11-08T04:50:38.535Z,100868.25
2022-11-08T04:53:05.480Z,100865.19
2022-11-08T04:55:32.529Z,100866.78
2022-11-08T04:58:00.855Z,100865.00
2022-11-08T05:00:27.996Z,100864.56
2022-11-08T05:02:55.126Z,100859.25
2022-11-08T05:05:22.862Z,100863.16
2022-11-08T05:07:49.945Z,100864.75
2022-11-08T05:10:17.223Z,100857.44
2022-11-08T05:12:44.275Z,100852.94
2022-11-08T05:15:13.162Z,100854.78
2022-11-08T05:17:40.193Z,100851.09
2022-11-08T05:20:28.913Z,100852.09
2022-11-08T05:23:20.060Z,100852.75
2022-11-08T05:25:47.229Z,100842.13
2022-11-08T05:28:14.489Z,100839.47
2022-11-08T05:30:43.042Z,100842.91
2022-11-08T05:33:10.461Z,100844.78
2022-11-08T05:35:37.453Z,100840.47
2022-11-08T05:38:04.439Z,100834.34
2022-11-08T05:40:33.597Z,100831.25
2022-11-08T05:43:00.983Z,100833.50
2022-11-08T05:45:28.309Z,100836.63
2022-11-08T05:47:57.682Z,100825.97
2022-11-08T05:50:25.027Z,100829.88
2022-11-08T05:52:54.774Z,100821.31
2022-11-08T05:55:22.015Z,100825.38
2022-11-08T05:57:49.340Z,100835.78
2022-11-08T06:00:17.551Z,100827.81
2022-11-08T06:02:44.992Z,100812.28
2022-11-08T06:05:13.756Z,100815.53
2022-11-08T06:07:40.728Z,100822.09
2022-11-08T06:10:09.140Z,100816.41
2022-11-08T06:12:38.000Z,100820.91
2022-11-08T06:15:06.666Z,100812.31
2022-11-08T06:17:34.548Z,100814.75
2022-11-08T06:20:01.637Z,100822.53
2022-11-08T06:22:32.572Z,100818.44
2022-11-08T06:25:00.026Z,100817.78
2022-11-08T06:27:27.735Z,100808.19
2022-11-08T06:29:54.726Z,100807.94
2022-11-08T06:32:21.831Z,100809.19
2022-11-08T06:34:49.137Z,100812.03
2022-11-08T06:37:16.635Z,100817.78
2022-11-08T06:39:44.988Z,100820.41
2022-11-08T06:42:12.114Z,100810.22
2022-11-08T06:44:39.121Z,100814.31
2022-11-08T06:47:06.241Z,100809.03
2022-11-08T06:49:33.380Z,100815.56
2022-11-08T06:52:00.385Z,100812.53
2022-11-08T06:54:27.631Z,100809.09
2022-11-08T06:56:56.026Z,100806.25
2022-11-08T06:59:23.190Z,100815.25
2022-11-08T07:01:50.308Z,100807.47
2022-11-08T07:04:17.380Z,100804.63
2022-11-08T07:06:44.361Z,100808.28
2022-11-08T07:09:17.988Z,100814.03
2022-11-08T07:11:45.056Z,100803.63
2022-11-08T07:14:13.435Z,100812.78
2022-11-08T07:16:40.463Z,100798.91
2022-11-08T07:19:07.781Z,100796.00
2022-11-08T07:21:34.747Z,100791.47
2022-11-08T07:24:01.712Z,100785.34
2022-11-08T07:26:28.825Z,100788.97
2022-11-08T07:28:55.758Z,100781.78
2022-11-08T07:31:24.969Z,100774.81
2022-11-08T07:33:52.013Z,100777.88
2022-11-08T07:36:19.220Z,100778.66
2022-11-08T07:38:46.221Z,100771.28
2022-11-08T07:41:13.249Z,100766.75
2022-11-08T07:43:40.222Z,100773.25
2022-11-08T07:46:10.835Z,100772.47
2022-11-08T07:48:39.143Z,100785.53
2022-11-08T07:51:06.958Z,100782.88
2022-11-08T07:53:53.218Z,100786.13
2022-11-08T07:56:49.558Z,100783.72
2022-11-08T07:59:42.461Z,100775.72
2022-11-08T08:02:10.887Z,100763.66
2022-11-08T08:04:54.200Z,100760.56
2022-11-08T08:07:21.551Z,100756.88
2022-11-08T08:10:10.646Z,100746.25
2022-11-08T08:13:03.736Z,100741.75
2022-11-08T08:15:49.206Z,100747.06
2022-11-08T08:18:19.257Z,100745.81
2022-11-08T08:20:48.627Z,100755.00
2022-11-08T08:23:32.005Z,100747.34
2022-11-08T08:26:10.336Z,100750.59
2022-11-08T08:29:03.447Z,100736.66
2022-11-08T08:31:30.416Z,100744.75
2022-11-08T08:33:58.894Z,100747.13
2022-11-08T08:36:29.947Z,100742.94
2022-11-08T08:38:57.971Z,100745.09
2022-11-08T08:41:25.326Z,100739.97
2022-11-08T08:43:53.596Z,100738.50
2022-11-08T08:46:22.664Z,100729.19
2022-11-08T08:49:10.983Z,100728.31
2022-11-08T08:51:57.957Z,100724.97
2022-11-08T08:54:38.009Z,100717.88
2022-11-08T08:57:05.530Z,100708.09
2022-11-08T09:02:39.804Z,100688.16
2022-11-08T09:05:10.396Z,100700.16
2022-11-08T09:07:43.410Z,100693.00
2022-11-08T09:10:23.334Z,100700.72
2022-11-08T09:12:50.646Z,100686.78
2022-11-08T09:15:21.116Z,100687.50
2022-11-08T09:17:48.398Z,100683.91
2022-11-08T09:20:15.968Z,100684.53
2022-11-08T09:22:44.366Z,100671.78
2022-11-08T09:25:11.421Z,100679.09
2022-11-08T09:27:40.462Z,100678.28
2022-11-08T09:30:09.756Z,100676.31
2022-11-08T09:32:59.286Z,100678.97
2022-11-08T09:35:29.005Z,100686.50
2022-11-08T09:37:59.171Z,100683.84
2022-11-08T09:40:39.533Z,100674.09
2022-11-08T09:43:30.051Z,100667.84
2022-11-08T09:45:57.910Z,100667.84
2022-11-08T09:48:34.030Z,100664.81
2022-11-08T09:51:07.982Z,100665.19
2022-11-08T09:53:47.501Z,100659.28
2022-11-08T09:56:26.904Z,100658.84
2022-11-08T09:59:02.101Z,100656.38
2022-11-08T10:01:32.503Z,100653.63
2022-11-08T10:04:05.117Z,100644.09
2022-11-08T10:06:56.880Z,100636.22
2022-11-08T10:09:53.367Z,100637.38
2022-11-08T10:12:31.172Z,100649.31
2022-11-08T10:15:14.815Z,100631.78
2022-11-08T10:18:22.524Z,100635.25
2022-11-08T10:21:14.783Z,100635.75
2022-11-08T10:23:45.694Z,100628.56
2022-11-08T10:26:19.665Z,100620.53
2022-11-08T10:28:56.537Z,100612.94
2022-11-08T10:31:23.505Z,100621.19
2022-11-08T10:33:54.364Z,100614.13
2022-11-08T10:36:30.858Z,100604.22
2022-11-08T10:39:05.471Z,100608.06
2022-11-08T10:41:47.137Z,100604.50
2022-11-08T10:44:20.802Z,100599.34
2022-11-08T10:46:51.172Z,100608.47
2022-11-08T10:49:23.208Z,100599.94
2022-11-08T10:51:54.294Z,100599.34
2022-11-08T10:54:46.191Z,100600.53
2022-11-08T10:57:17.652Z,100608.88
2022-11-08T10:59:45.790Z,100601.94
2022-11-08T11:02:26.156Z,100603.19
2022-11-08T11:05:20.034Z,100595.16
2022-11-08T11:08:01.903Z,100585.16
2022-11-08T11:10:32.796Z,100572.47
2022-11-08T11:13:12.072Z,100565.72
2022-11-08T11:15:46.612Z,100553.00
2022-11-08T11:18:25.601Z,100550.75
2022-11-08T11:21:10.440Z,100544.28
2022-11-08T11:23:43.115Z,100545.53
2022-11-08T11:26:29.757Z,100543.09
2022-11-08T11:29:19.342Z,100544.03
2022-11-08T11:31:49.445Z,100549.06
2022-11-08T11:34:45.642Z,100558.78
2022-11-08T11:37:27.867Z,100550.03
2022-11-08T11:40:07.388Z,100549.81
2022-11-08T11:42:46.889Z,100542.94
2022-11-08T11:45:27.246Z,100541.47
2022-11-08T11:47:58.256Z,100554.50
2022-11-08T11:50:33.792Z,100556.59
2022-11-08T11:53:04.996Z,100553.38
2022-11-08T11:55:57.893Z,100540.47
2022-11-08T11:58:44.029Z,100528.63
2022-11-08T12:01:27.324Z,100531.25
2022-11-08T12:04:26.614Z,100531.00
2022-11-08T12:07:05.220Z,100540.13
2022-11-08T12:09:53.648Z,100516.25
2022-11-08T12:12:42.149Z,100522.78
2022-11-08T12:15:21.121Z,100536.97
2022-11-08T12:18:45.362Z,100529.19
2022-11-08T12:21:14.912Z,100530.78
2022-11-08T12:24:19.912Z,100525.59
2022-11-08T12:27:00.301Z,100527.25
2022-11-08T12:29:34.484Z,100529.16
2022-11-08T12:32:33.940Z,100524.31
2022-11-08T12:35:23.322Z,100516.34
2022-11-08T12:38:09.747Z,100501.41
2022-11-08T12:40:48.811Z,100504.16
2022-11-08T12:43:38.659Z,100501.22
2022-11-08T12:46:12.892Z,100494.06
2022-11-08T12:49:13.479Z,100496.06
2022-11-08T12:52:00.990Z,100491.81
2022-11-08T12:54:35.719Z,100500.91
2022-11-08T12:57:10.552Z,100494.25
2022-11-08T12:59:42.896Z,100497.78
2022-11-08T13:02:18.872Z,100490.28
2022-11-08T13:04:58.000Z,100485.97
2022-11-08T13:07:39.325Z,100495.31
2022-11-08T13:10:22.555Z,100489.53
2022-11-08T13:13:11.800Z,100491.13
2022-11-08T13:16:14.631Z,100491.94
2022-11-08T13:18:48.786Z,100491.00
2022-11-08T13:21:38.238Z,100486.59
2022-11-08T13:24:44.555Z,100472.38
2022-11-08T13:27:33.937Z,100477.19
2022-11-08T13:30:38.355Z,100477.06
2022-11-08T13:33:16.481Z,100487.91
2022-11-08T13:36:00.826Z,100479.66
2022-11-08T13:38:47.377Z,100477.84
2022-11-08T13:41:19.280Z,100478.78
2022-11-08T13:43:49.143Z,100486.38
2022-11-08T13:46:47.932Z,100480.97
2022-11-08T13:49:22.740Z,100476.25
2022-11-08T13:51:51.587Z,100475.16
2022-11-08T13:54:50.504Z,100477.41
2022-11-08T13:57:57.521Z,100477.16
2022-11-08T14:00:45.317Z,100483.41
2022-11-08T14:03:53.666Z,100479.59
2022-11-08T14:06:32.249Z,100481.28
2022-11-08T14:09:16.177Z,100484.44
2022-11-08T14:11:55.412Z,100470.28
2022-11-08T14:14:56.061Z,100479.00
2022-11-08T14:17:45.672Z,100469.38
2022-11-08T14:20:31.196Z,100469.06
2022-11-08T14:23:12.348Z,100464.91
2022-11-08T14:25:40.800Z,100442.91
2022-11-08T14:28:24.070Z,100428.97
2022-11-08T14:30:53.404Z,100430.06
2022-11-08T14:33:23.368Z,100435.41
2022-11-08T14:35:57.828Z,100427.31
2022-11-08T14:38:25.606Z,100440.63
2022-11-08T14:40:55.738Z,100441.03
2022-11-08T14:43:23.795Z,100436.19
2022-11-08T14:45:53.584Z,100434.63
2022-11-08T14:48:27.190Z,100437.81
2022-11-08T14:51:00.214Z,100435.59
2022-11-08T14:53:30.662Z,100433.75
2022-11-08T14:56:14.040Z,100436.44
2022-11-08T14:58:41.480Z,100437.81
2022-11-08T15:01:13.136Z,100442.03
2022-11-08T15:03:47.560Z,100447.41
2022-11-08T15:06:15.014Z,100457.63
2022-11-08T15:08:52.790Z,100451.13
2022-11-08T15:11:29.731Z,100440.75
2022-11-08T15:14:01.861Z,100429.84
2022-11-08T15:16:40.795Z,100424.97
2022-11-08T15:19:29.906Z,100406.72
2022-11-08T15:22:00.954Z,100410.91
2022-11-08T15:24:37.413Z,100423.59
2022-11-08T15:27:16.660Z,100430.97
2022-11-08T15:29:53.431Z,100443.47
2022-11-08T15:32:23.115Z,100429.19
2022-11-08T15:34:56.085Z,100435.69
2022-11-08T15:37:31.863Z,100430.16
2022-11-08T15:40:04.314Z,100439.03
2022-11-08T15:42:34.856Z,100431.00
2022-11-08T15:45:06.716Z,100416.03
2022-11-08T15:47:46.035Z,100417.81
2022-11-08T15:50:17.904Z,100424.19
2022-11-08T15:52:47.805Z,100439.25
2022-11-08T15:55:18.349Z,100438.41
2022-11-08T15:57:48.326Z,100445.03
2022-11-08T16:00:19.483Z,100421.47
2022-11-08T16:02:48.315Z,100428.19
2022-11-08T16:05:18.906Z,100420.16
2022-11-08T16:07:47.667Z,100426.47
2022-11-08T16:10:22.532Z,100422.59
2022-11-08T16:12:49.542Z,100418.38
2022-11-08T16:15:20.562Z,100418.88
2022-11-08T16:17:49.302Z,100421.56
2022-11-08T16:20:29.679Z,100426.34
2022-11-08T16:22:59.171Z,100424.88
2022-11-08T16:25:29.380Z,100429.06
2022-11-08T16:27:59.213Z,100429.41
2022-11-08T16:30:27.134Z,100431.03
2022-11-08T16:32:55.886Z,100427.47
2022-11-08T16:35:23.968Z,100413.03
2022-11-08T16:37:52.496Z,100415.50
2022-11-08T16:40:22.780Z,100422.94
2022-11-08T16:42:51.659Z,100425.09
2022-11-08T16:45:43.278Z,100430.38
2022-11-08T16:48:17.815Z,100428.28
2022-11-08T16:50:45.920Z,100430.69
2022-11-08T16:53:16.611Z,100429.88
2022-11-08T16:55:43.664Z,100428.03
2022-11-08T16:58:11.502Z,100425.84
2022-11-08T17:00:41.111Z,100430.63
2022-11-08T17:03:13.735Z,100438.16
2022-11-08T17:05:41.416Z,100433.63
2022-11-08T17:08:08.425Z,100420.00
2022-11-08T17:10:35.419Z,100426.16
2022-11-08T17:13:02.480Z,100434.66
2022-11-08T17:15:30.275Z,100435.66
2022-11-08T17:17:58.994Z,100435.06
2022-11-08T17:20:27.616Z,100425.28
2022-11-08T17:22:54.932Z,100432.25
2022-11-08T17:25:23.826Z,100428.75
2022-11-08T17:27:52.516Z,100427.94
2022-11-08T17:30:26.354Z,100437.03
2022-11-08T17:32:54.164Z,100436.22
2022-11-08T17:35:25.395Z,100441.13
2022-11-08T17:37:57.707Z,100443.03
2022-11-08T17:40:25.675Z,100438.63
2022-11-08T17:42:52.970Z,100441.63
2022-11-08T17:45:20.152Z,100440.25
2022-11-08T17:47:47.144Z,100433.94
2022-11-08T17:50:14.120Z,100438.97
2022-11-08T17:52:41.679Z,100439.44
2022-11-08T17:55:10.479Z,100441.31
2022-11-08T17:57:37.424Z,100446.91
2022-11-08T18:00:10.702Z,100452.34
2022-11-08T18:02:39.010Z,100454.91
2022-11-08T18:05:06.746Z,100461.13
2022-11-08T18:07:33.687Z,100456.84
2022-11-08T18:10:01.701Z,100457.16
2022-11-08T18:12:30.026Z,100457.41
2022-11-08T18:14:57.070Z,100457.34
2022-11-08T18:17:27.270Z,100463.50
2022-11-08T18:19:54.419Z,100467.63
2022-11-08T18:22:21.409Z,100458.47
2022-11-08T18:24:50.037Z,100464.53
2022-11-08T18:27:17.362Z,100459.75
2022-11-08T18:29:45.645Z,100451.25
2022-11-08T18:32:12.644Z,100461.28
2022-11-08T18:34:39.629Z,100459.19
2022-11-08T18:37:06.651Z,100455.00
2022-11-08T18:39:33.661Z,100459.84
2022-11-08T18:42:01.008Z,100459.09
2022-11-08T18:44:28.091Z,100450.53
2022-11-08T18:46:56.437Z,100457.06
2022-11-08T18:49:23.626Z,100459.72
2022-11-08T18:51:52.079Z,100461.38
2022-11-08T18:54:20.079Z,100464.94
2022-11-08T18:56:47.155Z,100456.94
2022-11-08T18:59:14.272Z,100457.41
2022-11-08T19:01:41.313Z,100460.06
2022-11-08T19:04:09.771Z,100461.63
2022-11-08T19:06:36.836Z,100463.06
2022-11-08T19:09:04.854Z,100455.38
2022-11-08T19:11:32.200Z,100463.38
2022-11-08T19:14:01.800Z,100460.22
2022-11-08T19:16:29.479Z,100456.97
2022-11-08T19:18:56.564Z,100451.38
2022-11-08T19:21:28.263Z,100453.13
2022-11-08T19:23:58.301Z,100450.25
2022-11-08T19:26:27.506Z,100450.72
2022-11-08T19:28:56.012Z,100446.66
2022-11-08T19:31:25.307Z,100448.78
2022-11-08T19:33:54.416Z,100452.72
2022-11-08T19:36:26.499Z,100448.63
2022-11-08T19:38:55.810Z,100463.50
2022-11-08T19:41:25.851Z,100453.72
2022-11-08T19:43:53.474Z,100455.63
2022-11-08T19:46:24.456Z,100454.78
2022-11-08T19:48:52.254Z,100455.25
2022-11-08T19:51:21.815Z,100459.53
2022-11-08T19:53:50.194Z,100460.22
2022-11-08T19:56:19.758Z,100459.97
2022-11-08T19:58:47.161Z,100464.00
2022-11-08T20:01:17.957Z,100465.97
2022-11-08T20:03:45.890Z,100467.81
2022-11-08T20:06:14.833Z,100464.00
2022-11-08T20:08:41.840Z,100469.34
2022-11-08T20:11:15.023Z,100470.97
2022-11-08T20:13:42.641Z,100462.97
2022-11-08T20:16:12.121Z,100471.94
2022-11-08T20:18:39.657Z,100473.56
2022-11-08T20:21:08.035Z,100472.50
2022-11-08T20:23:35.670Z,100472.59
2022-11-08T20:26:07.463Z,100475.03
2022-11-08T20:28:36.395Z,100479.56
2022-11-08T20:31:11.714Z,100475.72
2022-11-08T20:33:39.696Z,100480.66
2022-11-08T20:36:09.473Z,100481.94
2022-11-08T20:38:37.103Z,100483.56
2022-11-08T20:41:07.195Z,100479.84
2022-11-08T20:43:38.154Z,100480.19
2022-11-08T20:46:08.086Z,100484.25
2022-11-08T20:48:35.224Z,100484.34
2022-11-08T20:51:05.578Z,100473.88
2022-11-08T20:53:35.983Z,100480.84
2022-11-08T20:56:06.034Z,100483.84
2022-11-08T20:58:36.323Z,100475.25
2022-11-08T21:01:07.285Z,100476.63
2022-11-08T21:03:35.151Z,100488.94
2022-11-08T21:06:04.762Z,100481.97
2022-11-08T21:11:20.533Z,100491.53
2022-11-08T21:13:49.477Z,100491.75
2022-11-08T21:16:52.633Z,100492.25
2022-11-08T21:19:05.166Z,100491.09
2022-11-08T21:21:32.924Z,100484.38
2022-11-08T21:24:00.020Z,100493.34
2022-11-08T21:26:27.139Z,100488.69
2022-11-08T21:28:55.454Z,100484.38
2022-11-08T21:31:22.750Z,100484.31
2022-11-08T21:33:49.677Z,100480.25
2022-11-08T21:36:17.689Z,100482.31
2022-11-08T21:38:45.459Z,100495.91
2022-11-08T21:41:13.257Z,100498.00
2022-11-08T21:43:43.161Z,100490.00
2022-11-08T21:46:18.099Z,100477.59
2022-11-08T21:48:45.884Z,100492.00
2022-11-08T21:51:14.227Z,100488.19
2022-11-08T21:53:52.526Z,100489.47
2022-11-08T21:56:22.001Z,100489.69
2022-11-08T21:58:49.107Z,100499.53
2022-11-08T22:01:18.548Z,100497.13
2022-11-08T22:03:46.353Z,100500.25
2022-11-08T22:06:13.983Z,100501.31
2022-11-08T22:08:40.887Z,100501.31
2022-11-08T22:11:07.971Z,100501.19
2022-11-08T22:13:35.194Z,100496.66
2022-11-08T22:16:02.123Z,100506.97
2022-11-08T22:18:50.869Z,100503.28
2022-11-08T22:21:35.845Z,100497.13
2022-11-08T22:24:02.834Z,100503.28
2022-11-08T22:26:29.804Z,100497.94
2022-11-08T22:28:56.763Z,100503.13
2022-11-08T22:31:23.790Z,100502.09
2022-11-08T22:33:52.068Z,100490.38
2022-11-08T22:36:21.494Z,100496.75
2022-11-08T22:38:48.429Z,100495.03
2022-11-08T22:41:16.901Z,100494.00
2022-11-08T22:43:44.285Z,100490.19
2022-11-08T22:46:12.174Z,100492.59
2022-11-08T22:48:39.513Z,100488.53
2022-11-08T22:51:09.009Z,100490.66
2022-11-08T22:53:36.692Z,100493.88
2022-11-08T22:56:09.868Z,100489.94
2022-11-08T22:58:38.843Z,100487.50
2022-11-08T23:01:06.848Z,100494.44
2022-11-08T23:03:33.877Z,100490.75
2022-11-08T23:06:00.837Z,100498.25
2022-11-08T23:08:29.473Z,100497.69
2022-11-08T23:11:17.787Z,100502.00
2022-11-08T23:14:03.220Z,100493.53
2022-11-08T23:16:37.084Z,100492.47
2022-11-08T23:19:25.694Z,100496.88
2022-11-08T23:22:12.887Z,100497.44
2022-11-08T23:24:42.949Z,100503.81
2022-11-08T23:27:30.916Z,100500.44
2022-11-08T23:30:16.842Z,100498.34
2022-11-08T23:32:47.369Z,100498.13
2022-11-08T23:35:16.445Z,100492.53
2022-11-08T23:37:44.010Z,100487.53
2022-11-08T23:40:34.226Z,100485.44
2022-11-08T23:43:25.516Z,100478.81
2022-11-08T23:45:52.579Z,100484.63
2022-11-08T23:48:19.888Z,100487.88
2022-11-08T23:50:52.193Z,100477.56
2022-11-08T23:53:21.356Z,100482.09
2022-11-08T23:55:49.838Z,100483.94
2022-11-08T23:58:17.848Z,100490.91
